createdAt,value
2023-05-05T00:01:41.648Z,25.19
2023-05-05T00:04:31.658Z,25.19
2023-05-05T00:07:20.382Z,25.17
2023-05-05T00:10:09.748Z,25.18
2023-05-05T00:12:58.673Z,25.14
2023-05-05T00:15:48.817Z,25.17
2023-05-05T00:18:37.611Z,25.17
2023-05-05T00:21:28.055Z,25.14
2023-05-05T00:24:16.834Z,25.22
2023-05-05T00:27:08.057Z,25.25
2023-05-05T00:29:56.672Z,25.24
2023-05-05T00:32:45.318Z,25.25
2023-05-05T00:35:36.174Z,25.23
2023-05-05T00:38:26.280Z,25.19
2023-05-05T00:41:15.079Z,25.19
2023-05-05T00:44:03.752Z,25.15
2023-05-05T00:46:53.438Z,25.10
2023-05-05T00:49:42.186Z,25.10
2023-05-05T00:52:32.536Z,25.09
2023-05-05T00:55:25.590Z,25.07
2023-05-05T00:58:14.820Z,25.04
2023-05-05T01:01:04.403Z,25.06
2023-05-05T01:03:53.327Z,25.07
2023-05-05T01:06:50.106Z,25.04
2023-05-05T01:09:46.216Z,25.05
2023-05-05T01:12:47.978Z,25.03
2023-05-05T01:15:39.387Z,25.03
2023-05-05T01:18:33.755Z,25.01
2023-05-05T01:21:35.043Z,25.01
2023-05-05T01:24:45.854Z,25.00
2023-05-05T01:27:50.054Z,25.03
2023-05-05T01:31:11.600Z,25.02
2023-05-05T01:34:05.524Z,25.01
2023-05-05T01:37:05.958Z,24.98
2023-05-05T01:39:59.128Z,24.99
2023-05-05T01:42:48.384Z,24.96
2023-05-05T01:45:40.838Z,24.93
2023-05-05T01:48:30.011Z,24.93
2023-05-05T01:51:22.932Z,24.90
2023-05-05T01:54:12.243Z,24.96
2023-05-05T01:57:02.003Z,24.93
2023-05-05T01:59:53.607Z,24.90
2023-05-05T02:02:42.901Z,24.89
2023-05-05T02:05:33.276Z,24.90
2023-05-05T02:08:24.918Z,24.90
2023-05-05T02:11:16.908Z,24.88
2023-05-05T02:14:07.166Z,24.87
2023-05-05T02:16:58.221Z,24.89
2023-05-05T02:19:49.546Z,24.88
2023-05-05T02:22:38.507Z,24.87
2023-05-05T02:25:36.990Z,24.86
2023-05-05T02:28:34.929Z,24.87
2023-05-05T02:31:28.200Z,24.88
2023-05-05T02:34:21.846Z,24.82
2023-05-05T02:37:14.131Z,24.83
2023-05-05T02:40:06.084Z,24.83
2023-05-05T02:42:58.819Z,24.80
2023-05-05T02:45:47.470Z,24.79
2023-05-05T02:48:36.222Z,24.79
2023-05-05T02:51:24.808Z,24.79
2023-05-05T02:54:13.614Z,24.77
2023-05-05T02:57:03.975Z,24.75
2023-05-05T03:00:05.727Z,24.80
2023-05-05T03:03:07.232Z,24.86
2023-05-05T03:06:03.973Z,24.86
2023-05-05T03:08:58.025Z,24.88
2023-05-05T03:11:51.246Z,24.86
2023-05-05T03:14:43.436Z,24.83
2023-05-05T03:17:34.439Z,24.84
2023-05-05T03:20:25.020Z,24.81
2023-05-05T03:23:14.586Z,24.79
2023-05-05T03:26:03.187Z,24.79
2023-05-05T03:28:51.906Z,24.76
2023-05-05T03:31:40.945Z,24.76
2023-05-05T03:34:30.880Z,24.81
2023-05-05T03:37:19.498Z,24.77
2023-05-05T03:40:09.395Z,24.78
2023-05-05T03:42:58.180Z,24.74
2023-05-05T03:45:46.776Z,24.75
2023-05-05T03:48:35.398Z,24.74
2023-05-05T03:51:25.749Z,24.79
2023-05-05T03:54:14.379Z,24.77
2023-05-05T03:57:03.929Z,24.75
2023-05-05T03:59:52.819Z,24.73
2023-05-05T04:02:41.447Z,24.73
2023-05-05T04:05:30.112Z,24.70
2023-05-05T04:08:20.199Z,24.79
2023-05-05T04:11:08.815Z,24.74
2023-05-05T04:13:57.416Z,24.78
2023-05-05T04:16:45.997Z,24.88
2023-05-05T04:19:35.068Z,24.89
2023-05-05T04:22:24.739Z,24.81
2023-05-05T04:25:14.750Z,24.83
2023-05-05T04:28:03.446Z,24.82
2023-05-05T04:30:52.115Z,24.87
2023-05-05T04:33:40.847Z,24.86
2023-05-05T04:36:29.566Z,24.80
2023-05-05T04:39:18.182Z,24.88
2023-05-05T04:42:08.839Z,24.86
2023-05-05T04:44:59.894Z,24.84
2023-05-05T04:47:48.557Z,24.83
2023-05-05T04:50:37.301Z,24.88
2023-05-05T04:53:25.930Z,24.79
2023-05-05T04:56:17.294Z,24.75
2023-05-05T04:59:10.172Z,24.76
2023-05-05T05:01:59.792Z,24.86
2023-05-05T05:04:49.002Z,24.80
2023-05-05T05:07:37.638Z,24.79
2023-05-05T05:10:26.219Z,24.78
2023-05-05T05:13:15.617Z,24.78
2023-05-05T05:16:07.556Z,24.80
2023-05-05T05:18:56.254Z,24.79
2023-05-05T05:21:44.890Z,24.87
2023-05-05T05:24:34.763Z,24.89
2023-05-05T05:27:23.557Z,24.78
2023-05-05T05:30:12.922Z,24.81
2023-05-05T05:33:02.938Z,24.84
2023-05-05T05:35:51.601Z,24.75
2023-05-05T05:38:40.207Z,24.75
2023-05-05T05:41:28.854Z,24.77
2023-05-05T05:44:17.416Z,24.75
2023-05-05T05:47:06.194Z,24.81
2023-05-05T05:49:56.229Z,24.79
2023-05-05T05:52:44.846Z,24.81
2023-05-05T05:55:33.444Z,24.80
2023-05-05T05:58:22.024Z,24.82
2023-05-05T06:01:10.707Z,24.84
2023-05-05T06:03:59.324Z,24.82
2023-05-05T06:06:49.962Z,24.86
2023-05-05T06:09:38.582Z,24.87
2023-05-05T06:12:27.460Z,24.91
2023-05-05T06:15:16.209Z,24.98
2023-05-05T06:18:04.984Z,24.99
2023-05-05T06:20:53.754Z,24.99
2023-05-05T06:23:43.987Z,24.99
2023-05-05T06:26:32.639Z,25.03
2023-05-05T06:29:22.273Z,24.99
2023-05-05T06:32:12.639Z,25.01
2023-05-05T06:35:01.272Z,25.07
2023-05-05T06:37:52.190Z,25.04
2023-05-05T06:40:45.161Z,25.04
2023-05-05T06:43:33.790Z,25.10
2023-05-05T06:46:22.506Z,25.14
2023-05-05T06:49:11.340Z,25.09
2023-05-05T06:51:59.992Z,25.08
2023-05-05T06:54:48.528Z,25.11
2023-05-05T06:57:38.673Z,25.16
2023-05-05T07:00:27.507Z,25.14
2023-05-05T07:03:16.236Z,25.26
2023-05-05T07:06:05.225Z,25.20
2023-05-05T07:08:54.497Z,25.25
2023-05-05T07:12:02.037Z,25.27
2023-05-05T07:14:52.236Z,25.32
2023-05-05T07:17:41.105Z,25.29
2023-05-05T07:20:29.694Z,25.24
2023-05-05T07:23:18.420Z,25.27
2023-05-05T07:26:07.562Z,25.35
2023-05-05T07:28:58.710Z,25.32
2023-05-05T07:31:49.087Z,25.35
2023-05-05T07:34:38.272Z,25.38
2023-05-05T07:37:27.093Z,25.46
2023-05-05T07:40:15.823Z,25.43
2023-05-05T07:43:05.019Z,25.49
2023-05-05T07:45:53.785Z,25.45
2023-05-05T07:48:43.782Z,25.40
2023-05-05T07:51:34.596Z,25.41
2023-05-05T07:54:23.701Z,25.46
2023-05-05T07:57:14.660Z,25.51
2023-05-05T08:00:03.416Z,25.58
2023-05-05T08:02:53.479Z,25.64
2023-05-05T08:05:43.674Z,25.66
2023-05-05T08:08:32.781Z,25.66
2023-05-05T08:11:23.369Z,25.69
2023-05-05T08:14:12.038Z,25.74
2023-05-05T08:17:00.678Z,25.71
2023-05-05T08:19:49.348Z,25.70
2023-05-05T08:22:39.315Z,25.66
2023-05-05T08:25:27.989Z,25.67
2023-05-05T08:28:16.604Z,25.67
2023-05-05T08:31:05.735Z,25.69
2023-05-05T08:33:54.421Z,25.71
2023-05-05T08:36:43.090Z,25.76
2023-05-05T08:39:33.736Z,25.73
2023-05-05T08:42:35.560Z,25.82
2023-05-05T08:45:27.019Z,25.77
2023-05-05T08:48:19.364Z,25.87
2023-05-05T08:51:10.261Z,25.93
2023-05-05T08:54:03.660Z,25.96
2023-05-05T08:56:56.485Z,25.94
2023-05-05T08:59:46.359Z,26.01
2023-05-05T09:02:37.063Z,26.02
2023-05-05T09:05:28.830Z,25.99
2023-05-05T09:08:17.781Z,26.27
2023-05-05T09:11:06.626Z,26.11
2023-05-05T09:13:56.713Z,26.23
2023-05-05T09:16:45.924Z,26.13
2023-05-05T09:19:34.677Z,26.02
2023-05-05T09:22:34.874Z,26.11
2023-05-05T09:25:23.465Z,26.23
2023-05-05T09:28:14.199Z,26.32
2023-05-05T09:31:16.167Z,26.26
2023-05-05T09:34:16.897Z,26.31
2023-05-05T09:37:06.115Z,26.30
2023-05-05T09:39:56.662Z,26.25
2023-05-05T09:42:45.714Z,26.37
2023-05-05T09:45:34.406Z,26.41
2023-05-05T09:48:29.009Z,26.41
2023-05-05T09:51:17.827Z,26.28
2023-05-05T09:54:06.549Z,26.14
2023-05-05T09:56:55.985Z,26.19
2023-05-05T09:59:56.460Z,26.16
2023-05-05T10:02:45.244Z,26.10
2023-05-05T10:05:47.868Z,26.22
2023-05-05T10:08:36.640Z,26.12
2023-05-05T10:11:25.554Z,26.17
2023-05-05T10:14:15.854Z,26.17
2023-05-05T10:17:05.962Z,26.41
2023-05-05T10:20:00.478Z,26.61
2023-05-05T10:22:53.398Z,26.41
2023-05-05T10:25:47.358Z,26.40
2023-05-05T10:28:38.851Z,26.22
2023-05-05T10:31:31.650Z,26.12
2023-05-05T10:34:25.956Z,26.19
2023-05-05T10:37:15.162Z,26.34
2023-05-05T10:40:06.230Z,26.35
2023-05-05T10:42:57.145Z,26.53
2023-05-05T10:45:46.354Z,26.53
2023-05-05T10:48:46.356Z,26.45
2023-05-05T10:51:47.851Z,26.32
2023-05-05T10:54:41.084Z,26.18
2023-05-05T10:57:36.316Z,26.18
2023-05-05T11:00:52.896Z,26.19
2023-05-05T11:03:41.671Z,26.39
2023-05-05T11:06:31.310Z,26.48
2023-05-05T11:09:30.015Z,26.44
2023-05-05T11:12:18.649Z,26.51
2023-05-05T11:15:38.447Z,26.32
2023-05-05T11:18:33.940Z,26.22
2023-05-05T11:21:22.548Z,26.35
2023-05-05T11:24:31.169Z,26.37
2023-05-05T11:27:19.821Z,26.29
2023-05-05T11:30:10.619Z,26.27
2023-05-05T11:33:26.150Z,26.22
2023-05-05T11:36:16.267Z,26.14
2023-05-05T11:39:13.343Z,26.26
2023-05-05T11:42:24.421Z,26.28
2023-05-05T11:45:23.788Z,26.44
2023-05-05T11:48:29.135Z,26.52
2023-05-05T11:51:19.130Z,26.46
2023-05-05T11:54:07.867Z,26.42
2023-05-05T11:56:58.797Z,26.66
2023-05-05T11:59:55.347Z,26.60
2023-05-05T12:02:44.278Z,26.62
2023-05-05T12:05:36.415Z,26.54
2023-05-05T12:08:26.049Z,26.45
2023-05-05T12:11:14.648Z,26.53
2023-05-05T12:14:10.675Z,26.45
2023-05-05T12:17:01.292Z,26.45
2023-05-05T12:19:51.302Z,26.40
2023-05-05T12:22:41.667Z,26.39
2023-05-05T12:25:38.114Z,26.37
2023-05-05T12:28:26.886Z,26.33
2023-05-05T12:31:15.933Z,26.59
2023-05-05T12:34:05.266Z,26.47
2023-05-05T12:36:54.582Z,26.44
2023-05-05T12:39:44.556Z,26.39
2023-05-05T12:42:34.005Z,26.39
2023-05-05T12:45:22.962Z,26.33
2023-05-05T12:48:23.986Z,26.33
2023-05-05T12:51:17.688Z,26.29
2023-05-05T12:54:08.112Z,26.28
2023-05-05T12:56:58.775Z,26.35
2023-05-05T12:59:48.283Z,26.39
2023-05-05T13:02:37.058Z,26.35
2023-05-05T13:05:33.576Z,26.33
2023-05-05T13:08:22.620Z,26.39
2023-05-05T13:11:12.175Z,26.48
2023-05-05T13:14:02.180Z,26.48
2023-05-05T13:16:51.413Z,26.48
2023-05-05T13:19:45.984Z,26.45
2023-05-05T13:22:34.715Z,26.48
2023-05-05T13:25:24.977Z,26.61
2023-05-05T13:28:13.803Z,26.57
2023-05-05T13:31:03.951Z,26.62
2023-05-05T13:33:52.780Z,26.52
2023-05-05T13:36:41.355Z,26.56
2023-05-05T13:39:30.094Z,26.55
2023-05-05T13:42:18.834Z,26.54
2023-05-05T13:45:08.347Z,26.56
2023-05-05T13:47:58.537Z,26.55
2023-05-05T13:50:47.104Z,26.46
2023-05-05T13:53:36.256Z,26.46
2023-05-05T13:56:26.267Z,26.41
2023-05-05T13:59:15.089Z,26.40
2023-05-05T14:02:03.783Z,26.41
2023-05-05T14:04:53.911Z,26.42
2023-05-05T14:07:42.585Z,26.41
2023-05-05T14:10:31.210Z,26.42
2023-05-05T14:13:19.907Z,26.49
2023-05-05T14:16:08.908Z,26.46
2023-05-05T14:18:57.566Z,26.61
2023-05-05T14:21:47.503Z,26.57
2023-05-05T14:24:36.423Z,26.54
2023-05-05T14:27:24.992Z,26.62
2023-05-05T14:30:14.598Z,26.62
2023-05-05T14:33:04.940Z,26.68
2023-05-05T14:35:54.377Z,26.70
2023-05-05T14:38:47.282Z,26.63
2023-05-05T14:41:35.997Z,26.63
2023-05-05T14:44:26.262Z,26.69
2023-05-05T14:47:14.827Z,26.70
2023-05-05T14:50:04.008Z,26.70
2023-05-05T14:52:52.676Z,26.84
2023-05-05T14:55:44.661Z,27.03
2023-05-05T14:58:35.535Z,27.14
2023-05-05T15:01:25.122Z,27.11
2023-05-05T15:04:13.784Z,27.22
2023-05-05T15:07:02.458Z,27.27
2023-05-05T15:09:51.112Z,27.33
2023-05-05T15:12:42.309Z,27.41
2023-05-05T15:15:30.976Z,27.53
2023-05-05T15:18:20.078Z,27.57
2023-05-05T15:21:08.842Z,27.64
2023-05-05T15:23:57.548Z,27.65
2023-05-05T15:26:46.257Z,27.60
2023-05-05T15:29:36.361Z,27.49
2023-05-05T15:32:25.088Z,27.52
2023-05-05T15:35:13.660Z,27.53
2023-05-05T15:38:02.274Z,27.48
2023-05-05T15:40:51.038Z,27.44
2023-05-05T15:43:39.816Z,27.42
2023-05-05T15:46:31.917Z,27.43
2023-05-05T15:49:20.534Z,27.40
2023-05-05T15:52:09.356Z,27.34
2023-05-05T15:54:58.087Z,27.29
2023-05-05T15:57:46.643Z,27.24
2023-05-05T16:00:35.258Z,27.19
2023-05-05T16:03:25.291Z,27.31
2023-05-05T16:06:14.215Z,27.14
2023-05-05T16:09:04.000Z,27.15
2023-05-05T16:11:54.571Z,27.11
2023-05-05T16:14:43.183Z,27.10
2023-05-05T16:17:31.874Z,27.09
2023-05-05T16:20:21.890Z,27.02
2023-05-05T16:23:10.541Z,26.95
2023-05-05T16:25:59.164Z,26.93
2023-05-05T16:28:47.817Z,26.85
2023-05-05T16:31:36.595Z,26.87
2023-05-05T16:34:25.482Z,26.86
2023-05-05T16:37:15.484Z,26.79
2023-05-05T16:40:05.455Z,26.74
2023-05-05T16:42:54.373Z,26.75
2023-05-05T16:45:43.384Z,26.73
2023-05-05T16:48:32.080Z,26.72
2023-05-05T16:51:20.715Z,26.74
2023-05-05T16:54:10.966Z,26.69
2023-05-05T16:56:59.644Z,26.62
2023-05-05T16:59:48.237Z,26.61
2023-05-05T17:02:37.484Z,26.56
2023-05-05T17:05:26.818Z,26.51
2023-05-05T17:08:16.051Z,26.64
2023-05-05T17:11:06.274Z,26.69
2023-05-05T17:13:56.014Z,26.59
2023-05-05T17:16:44.721Z,26.61
2023-05-05T17:19:33.491Z,26.66
2023-05-05T17:22:22.281Z,26.66
2023-05-05T17:25:15.331Z,26.63
2023-05-05T17:28:08.037Z,26.64
2023-05-05T17:31:00.028Z,26.64
2023-05-05T17:33:52.491Z,26.56
2023-05-05T17:36:41.079Z,26.58
2023-05-05T17:39:32.300Z,26.63
2023-05-05T17:42:23.078Z,26.62
2023-05-05T17:45:13.922Z,26.60
2023-05-05T17:48:06.744Z,26.59
2023-05-05T17:50:56.548Z,26.52
2023-05-05T17:53:45.149Z,26.49
2023-05-05T17:56:35.754Z,26.43
2023-05-05T17:59:27.647Z,26.41
2023-05-05T18:02:21.048Z,26.36
2023-05-05T18:05:11.516Z,26.37
2023-05-05T18:08:01.016Z,26.35
2023-05-05T18:10:49.695Z,26.22
2023-05-05T18:13:39.341Z,26.27
2023-05-05T18:16:29.427Z,26.29
2023-05-05T18:19:23.321Z,26.35
2023-05-05T18:22:13.577Z,26.33
2023-05-05T18:25:07.953Z,26.28
2023-05-05T18:27:59.419Z,26.26
2023-05-05T18:30:48.877Z,26.32
2023-05-05T18:33:37.504Z,26.31
2023-05-05T18:36:28.139Z,26.16
2023-05-05T18:39:20.768Z,26.14
2023-05-05T18:42:13.303Z,26.22
2023-05-05T18:45:05.299Z,26.29
2023-05-05T18:47:54.785Z,26.31
2023-05-05T18:50:43.465Z,26.32
2023-05-05T18:53:34.386Z,26.30
2023-05-05T18:56:23.482Z,26.37
2023-05-05T18:59:15.086Z,26.36
2023-05-05T19:02:03.673Z,26.34
2023-05-05T19:04:53.164Z,26.35
2023-05-05T19:07:41.879Z,26.33
2023-05-05T19:10:35.245Z,26.51
2023-05-05T19:13:23.952Z,26.51
2023-05-05T19:16:13.234Z,26.58
2023-05-05T19:19:02.042Z,26.54
2023-05-05T19:21:50.658Z,26.60
2023-05-05T19:24:39.299Z,26.53
2023-05-05T19:27:30.059Z,26.58
2023-05-05T19:30:21.455Z,26.61
2023-05-05T19:33:10.187Z,26.63
2023-05-05T19:35:59.056Z,26.71
2023-05-05T19:38:47.619Z,26.63
2023-05-05T19:41:36.336Z,26.73
2023-05-05T19:44:26.631Z,26.76
2023-05-05T19:47:15.230Z,26.84
2023-05-05T19:50:04.606Z,26.80
2023-05-05T19:52:53.580Z,26.81
2023-05-05T19:55:42.114Z,26.80
2023-05-05T19:58:31.449Z,26.89
2023-05-05T20:01:21.632Z,26.82
2023-05-05T20:04:11.953Z,26.82
2023-05-05T20:07:01.811Z,26.80
2023-05-05T20:09:53.265Z,26.87
2023-05-05T20:12:47.904Z,26.83
2023-05-05T20:15:37.041Z,26.79
2023-05-05T20:18:27.082Z,26.85
2023-05-05T20:21:16.624Z,26.86
2023-05-05T20:24:06.168Z,26.83
2023-05-05T20:26:54.903Z,26.80
2023-05-05T20:29:44.026Z,26.75
2023-05-05T20:32:33.244Z,26.74
2023-05-05T20:35:23.434Z,26.71
2023-05-05T20:38:12.037Z,26.67
2023-05-05T20:41:00.852Z,26.70
2023-05-05T20:43:49.741Z,26.75
2023-05-05T20:46:39.902Z,26.69
2023-05-05T20:49:28.646Z,26.74
2023-05-05T20:52:18.593Z,26.66
2023-05-05T20:55:08.150Z,26.62
2023-05-05T20:57:56.935Z,26.55
2023-05-05T21:00:46.309Z,26.59
2023-05-05T21:03:34.936Z,26.59
2023-05-05T21:06:24.342Z,26.49
2023-05-05T21:09:14.664Z,26.35
2023-05-05T21:12:03.438Z,26.26
2023-05-05T21:14:52.349Z,26.25
2023-05-05T21:17:40.987Z,26.19
2023-05-05T21:20:29.704Z,26.15
2023-05-05T21:23:18.671Z,26.14
2023-05-05T21:26:08.741Z,26.17
2023-05-05T21:28:57.335Z,26.11
2023-05-05T21:31:46.014Z,26.16
2023-05-05T21:34:34.673Z,26.10
2023-05-05T21:37:23.376Z,26.09
2023-05-05T21:40:14.958Z,26.09
2023-05-05T21:43:07.424Z,26.16
2023-05-05T21:46:05.072Z,26.12
2023-05-05T21:48:54.343Z,26.12
2023-05-05T21:51:43.510Z,26.13
2023-05-05T21:54:32.415Z,26.12
2023-05-05T21:57:21.284Z,26.08
2023-05-05T22:00:16.612Z,26.04
2023-05-05T22:03:06.399Z,26.05
2023-05-05T22:05:55.431Z,26.03
2023-05-05T22:08:44.232Z,26.08
2023-05-05T22:11:32.862Z,26.10
2023-05-05T22:14:21.483Z,26.11
2023-05-05T22:17:11.826Z,26.12
2023-05-05T22:20:00.561Z,26.10
2023-05-05T22:22:49.442Z,26.05
2023-05-05T22:25:38.219Z,26.03
2023-05-05T22:28:27.734Z,26.04
2023-05-05T22:31:16.464Z,26.07
2023-05-05T22:34:06.986Z,26.00
2023-05-05T22:36:58.808Z,25.99
2023-05-05T22:39:47.414Z,25.96
2023-05-05T22:42:36.280Z,25.96
2023-05-05T22:45:25.155Z,25.96
2023-05-05T22:48:14.114Z,25.99
2023-05-05T22:51:04.500Z,25.98
2023-05-05T22:53:53.165Z,25.96
2023-05-05T22:56:42.295Z,25.92
2023-05-05T22:59:30.941Z,25.92
2023-05-05T23:02:19.490Z,25.97
2023-05-05T23:05:10.065Z,25.98
2023-05-05T23:08:01.316Z,25.93
2023-05-05T23:10:51.052Z,26.02
2023-05-05T23:13:39.628Z,26.04
2023-05-05T23:16:28.224Z,26.00
2023-05-05T23:19:16.840Z,25.98
2023-05-05T23:22:06.174Z,25.93
2023-05-05T23:24:56.137Z,25.93
2023-05-05T23:27:44.718Z,25.91
2023-05-05T23:30:33.346Z,25.89
2023-05-05T23:33:21.931Z,25.88
2023-05-05T23:36:11.190Z,25.96
2023-05-05T23:38:59.795Z,25.94
2023-05-05T23:41:49.746Z,25.89
2023-05-05T23:44:38.410Z,25.87
2023-05-05T23:47:27.412Z,25.87
2023-05-05T23:50:16.028Z,25.87
2023-05-05T23:53:04.617Z,25.86
2023-05-05T23:55:53.175Z,25.86
2023-05-05T23:58:43.157Z,25.84
